Shelby, Virginia
Current Conditions -  °F | °C
As of 11:55 AM on Friday 28 Nov 2014 (Local Time) from KOMH Reporting Station
Scattered Clouds Scattered Clouds  
Wind Chill: 36°   Ceiling: Unl
Heat Index: 41°   Visibility: 10mi
Dew Point: 19°   Wind: 8mph
Humidity: 42%   Direction: 220°SW
Pressure: 30.32"   Gusts: NA
Location:  38.4007°N, 78.3336°W
Report Text: KOMH 281655Z AUTO 22007KT 190V250 10SM SCT050 05/M07 A3032 RMK AO2
Loading
Personal Weather Stations






























Interactive Weather Map New forecast layout! Learn more

10-Day Weather Forecast

Advertisements
Track Severe Weather on mobile